createdAt,value
2018-10-16T00:01:12.127Z,10.63
2018-10-16T00:03:15.170Z,10.63
2018-10-16T00:05:18.334Z,10.60
2018-10-16T00:07:21.375Z,10.43
2018-10-16T00:09:24.321Z,10.24
2018-10-16T00:11:27.307Z,10.00
2018-10-16T00:13:30.278Z,9.95
2018-10-16T00:15:34.615Z,9.94
2018-10-16T00:17:37.623Z,9.75
2018-10-16T00:19:40.636Z,9.60
2018-10-16T00:21:43.619Z,9.66
2018-10-16T00:23:46.574Z,9.72
2018-10-16T00:25:49.658Z,9.75
2018-10-16T00:27:52.661Z,9.80
2018-10-16T00:29:55.699Z,9.69
2018-10-16T00:31:58.742Z,9.99
2018-10-16T00:34:01.749Z,9.98
2018-10-16T00:36:06.326Z,10.02
2018-10-16T00:38:09.375Z,9.85
2018-10-16T00:40:12.426Z,9.80
2018-10-16T00:42:15.448Z,9.87
2018-10-16T00:44:18.735Z,9.81
2018-10-16T00:46:21.727Z,9.81
2018-10-16T00:48:24.768Z,9.75
2018-10-16T00:50:28.078Z,9.74
2018-10-16T00:52:31.090Z,9.94
2018-10-16T00:54:34.643Z,9.99
2018-10-16T00:56:38.322Z,9.90
2018-10-16T00:58:41.355Z,10.08
2018-10-16T01:00:44.378Z,9.90
2018-10-16T01:02:47.422Z,9.78
2018-10-16T01:04:50.504Z,9.67
2018-10-16T01:06:53.526Z,9.56
2018-10-16T01:08:56.555Z,9.50
2018-10-16T01:10:59.614Z,9.52
2018-10-16T01:13:04.249Z,9.68
2018-10-16T01:15:08.862Z,9.64
2018-10-16T01:17:11.932Z,9.51
2018-10-16T01:19:14.988Z,9.41
2018-10-16T01:21:18.134Z,9.25
2018-10-16T01:23:21.203Z,9.19
2018-10-16T01:25:24.230Z,9.15
2018-10-16T01:27:27.266Z,9.13
2018-10-16T01:29:30.320Z,9.27
2018-10-16T01:31:34.890Z,9.57
2018-10-16T01:33:38.734Z,9.41
2018-10-16T01:35:41.681Z,9.26
2018-10-16T01:37:44.716Z,9.21
2018-10-16T01:39:47.717Z,9.20
2018-10-16T01:41:50.745Z,9.22
2018-10-16T01:43:53.736Z,9.15
2018-10-16T01:45:56.739Z,9.04
2018-10-16T01:47:59.743Z,8.93
2018-10-16T01:50:04.434Z,8.92
2018-10-16T01:52:07.434Z,8.87
2018-10-16T01:54:10.448Z,9.10
2018-10-16T01:56:13.414Z,9.10
2018-10-16T01:58:16.393Z,9.03
2018-10-16T02:00:19.369Z,8.86
2018-10-16T02:02:22.423Z,8.86
2018-10-16T02:04:25.426Z,8.87
2018-10-16T02:06:28.402Z,8.89
2018-10-16T02:08:31.397Z,8.90
2018-10-16T02:10:35.743Z,8.92
2018-10-16T02:12:38.730Z,8.88
2018-10-16T02:14:41.747Z,8.79
2018-10-16T02:16:44.797Z,8.79
2018-10-16T02:18:47.775Z,8.91
2018-10-16T02:20:50.753Z,9.11
2018-10-16T02:22:53.731Z,9.25
2018-10-16T02:24:56.706Z,9.15
2018-10-16T02:26:59.746Z,9.30
2018-10-16T02:29:04.483Z,9.45
2018-10-16T02:31:07.503Z,9.29
2018-10-16T02:33:10.574Z,9.14
2018-10-16T02:35:13.658Z,9.17
2018-10-16T02:37:16.717Z,9.27
2018-10-16T02:39:19.778Z,9.32
2018-10-16T02:41:22.799Z,9.16
2018-10-16T02:43:25.802Z,9.08
2018-10-16T02:45:28.832Z,9.31
2018-10-16T02:47:31.819Z,9.31
2018-10-16T02:49:36.160Z,9.23
2018-10-16T02:51:39.188Z,9.14
2018-10-16T02:53:42.215Z,9.26
2018-10-16T02:55:45.285Z,9.20
2018-10-16T02:57:48.328Z,8.95
2018-10-16T02:59:51.323Z,8.84
2018-10-16T03:01:54.710Z,8.77
2018-10-16T03:03:57.738Z,8.83
2018-10-16T03:06:00.790Z,9.14
2018-10-16T03:08:05.900Z,8.99
2018-10-16T03:10:08.996Z,9.02
2018-10-16T03:12:12.023Z,8.87
2018-10-16T03:14:15.070Z,8.83
2018-10-16T03:16:18.955Z,8.73
2018-10-16T03:18:21.962Z,8.62
2018-10-16T03:20:25.111Z,8.62
2018-10-16T03:22:28.121Z,8.56
2018-10-16T03:24:31.182Z,8.50
2018-10-16T03:26:36.078Z,8.52
2018-10-16T03:28:39.125Z,8.46
2018-10-16T03:30:42.221Z,8.52
2018-10-16T03:32:45.246Z,8.53
2018-10-16T03:34:48.662Z,8.53
2018-10-16T03:36:51.751Z,8.43
2018-10-16T03:38:54.763Z,8.40
2018-10-16T03:40:57.790Z,8.39
2018-10-16T03:43:00.911Z,8.48
2018-10-16T03:45:05.813Z,8.45
2018-10-16T03:47:08.851Z,8.38
2018-10-16T03:49:11.902Z,8.45
2018-10-16T03:51:14.911Z,8.91
2018-10-16T03:53:17.962Z,8.87
2018-10-16T03:55:20.959Z,8.89
2018-10-16T03:57:24.013Z,8.83
2018-10-16T03:59:27.039Z,8.81
2018-10-16T04:01:30.061Z,8.77
2018-10-16T04:03:34.374Z,8.71
2018-10-16T04:05:37.398Z,8.55
2018-10-16T04:07:40.443Z,8.46
2018-10-16T04:09:43.853Z,8.32
2018-10-16T04:11:46.863Z,8.31
2018-10-16T04:13:50.194Z,8.18
2018-10-16T04:15:53.212Z,8.08
2018-10-16T04:17:56.159Z,8.06
2018-10-16T04:19:59.201Z,8.01
2018-10-16T04:22:02.240Z,8.08
2018-10-16T04:24:06.936Z,8.12
2018-10-16T04:26:10.603Z,8.18
2018-10-16T04:28:13.570Z,8.32
2018-10-16T04:30:16.571Z,8.37
2018-10-16T04:32:19.526Z,8.38
2018-10-16T04:34:22.485Z,8.31
2018-10-16T04:36:25.523Z,8.30
2018-10-16T04:38:28.501Z,8.36
2018-10-16T04:40:31.470Z,8.48
2018-10-16T04:42:35.549Z,8.70
2018-10-16T04:44:38.478Z,8.78
2018-10-16T04:46:41.435Z,8.70
2018-10-16T04:48:44.436Z,8.92
2018-10-16T04:50:47.386Z,9.14
2018-10-16T04:52:50.409Z,9.01
2018-10-16T04:54:53.345Z,8.91
2018-10-16T04:56:56.359Z,8.89
2018-10-16T04:58:59.411Z,8.76
2018-10-16T05:01:02.407Z,8.75
2018-10-16T05:03:05.972Z,8.82
2018-10-16T05:05:19.576Z,8.86
2018-10-16T05:07:22.546Z,8.91
2018-10-16T05:09:25.632Z,9.32
2018-10-16T05:11:28.653Z,9.45
2018-10-16T05:13:31.647Z,9.53
2018-10-16T05:15:35.922Z,9.61
2018-10-16T05:17:38.935Z,9.56
2018-10-16T05:19:41.918Z,9.22
2018-10-16T05:21:45.291Z,9.38
2018-10-16T05:23:48.414Z,9.44
2018-10-16T05:25:51.442Z,9.46
2018-10-16T05:27:54.883Z,9.41
2018-10-16T05:29:57.886Z,9.28
2018-10-16T05:32:00.875Z,9.25
2018-10-16T05:34:06.411Z,9.21
2018-10-16T05:36:09.455Z,9.22
2018-10-16T05:38:18.828Z,9.08
2018-10-16T05:40:37.365Z,8.98
2018-10-16T05:42:40.514Z,8.89
2018-10-16T05:44:43.514Z,8.88
2018-10-16T05:46:46.588Z,8.87
2018-10-16T05:48:49.625Z,8.88
2018-10-16T05:50:52.611Z,8.91
2018-10-16T05:52:55.653Z,8.93
2018-10-16T05:54:58.798Z,8.88
2018-10-16T05:57:01.851Z,8.73
2018-10-16T05:59:06.546Z,8.79
2018-10-16T06:01:09.543Z,8.83
2018-10-16T06:03:12.596Z,8.77
2018-10-16T06:05:15.605Z,8.82
2018-10-16T06:07:18.939Z,8.81
2018-10-16T06:09:21.922Z,8.77
2018-10-16T06:11:24.915Z,8.87
2018-10-16T06:13:27.948Z,8.89
2018-10-16T06:15:30.984Z,8.92
2018-10-16T06:17:35.336Z,8.96
2018-10-16T06:19:38.331Z,9.00
2018-10-16T06:21:41.355Z,8.91
2018-10-16T06:23:44.379Z,8.96
2018-10-16T06:25:47.359Z,9.00
2018-10-16T06:27:50.461Z,8.98
2018-10-16T06:29:53.529Z,9.02
2018-10-16T06:31:56.514Z,8.98
2018-10-16T06:33:59.538Z,9.06
2018-10-16T06:36:03.900Z,9.36
2018-10-16T06:38:06.874Z,9.55
2018-10-16T06:40:10.358Z,9.52
2018-10-16T06:42:13.632Z,9.53
2018-10-16T06:44:16.602Z,9.70
2018-10-16T06:46:19.616Z,10.16
2018-10-16T06:48:22.751Z,10.19
2018-10-16T06:50:25.609Z,9.97
2018-10-16T06:52:28.574Z,9.94
2018-10-16T06:54:31.607Z,10.09
2018-10-16T06:56:35.841Z,10.21
2018-10-16T06:58:38.819Z,10.34
2018-10-16T07:00:41.787Z,10.43
2018-10-16T07:02:44.754Z,10.48
2018-10-16T07:04:47.779Z,10.58
2018-10-16T07:06:50.873Z,10.70
2018-10-16T07:08:53.842Z,10.85
2018-10-16T07:10:56.894Z,11.06
2018-10-16T07:13:00.159Z,11.11
2018-10-16T07:15:04.289Z,11.19
2018-10-16T07:17:07.257Z,11.26
2018-10-16T07:19:10.398Z,11.40
2018-10-16T07:21:13.503Z,11.47
2018-10-16T07:23:16.573Z,11.60
2018-10-16T07:25:19.524Z,12.01
2018-10-16T07:27:22.607Z,11.97
2018-10-16T07:29:25.636Z,12.06
2018-10-16T07:31:28.728Z,12.24
2018-10-16T07:33:31.786Z,12.32
2018-10-16T07:35:36.123Z,12.62
2018-10-16T07:37:39.868Z,12.71
2018-10-16T07:39:42.884Z,12.90
2018-10-16T07:41:46.196Z,13.14
2018-10-16T07:43:49.217Z,13.20
2018-10-16T07:45:52.240Z,13.26
2018-10-16T07:47:55.661Z,13.35
2018-10-16T07:49:58.737Z,13.47
2018-10-16T07:52:01.829Z,13.76
2018-10-16T07:54:05.330Z,13.81
2018-10-16T07:56:08.739Z,13.80
2018-10-16T07:58:11.749Z,13.94
2018-10-16T08:00:14.760Z,14.08
2018-10-16T08:02:17.799Z,14.51
2018-10-16T08:04:20.849Z,14.42
2018-10-16T08:06:23.882Z,14.51
2018-10-16T08:08:26.903Z,14.53
2018-10-16T08:10:29.921Z,14.70
2018-10-16T08:12:34.086Z,14.77
2018-10-16T08:14:37.902Z,14.84
2018-10-16T08:16:40.917Z,15.12
2018-10-16T08:18:43.882Z,15.29
2018-10-16T08:20:46.863Z,15.45
2018-10-16T08:22:49.900Z,15.65
2018-10-16T08:24:52.962Z,16.01
2018-10-16T08:26:56.345Z,16.26
2018-10-16T08:28:59.235Z,16.40
2018-10-16T08:31:02.406Z,16.74
2018-10-16T08:33:06.880Z,16.91
2018-10-16T08:35:09.863Z,17.05
2018-10-16T08:37:21.940Z,17.17
2018-10-16T08:39:31.863Z,17.10
2018-10-16T08:44:02.095Z,17.37
2018-10-16T08:46:23.783Z,17.62
2018-10-16T08:48:44.698Z,17.78
2018-10-16T08:51:06.102Z,17.99
2018-10-16T08:53:09.135Z,18.19
2018-10-16T08:55:12.151Z,18.16
2018-10-16T08:57:15.186Z,18.22
2018-10-16T08:59:18.286Z,18.23
2018-10-16T09:01:21.325Z,18.29
2018-10-16T09:03:24.350Z,18.34
2018-10-16T09:05:27.675Z,18.47
2018-10-16T09:07:30.666Z,18.47
2018-10-16T09:09:34.875Z,18.69
2018-10-16T09:11:37.898Z,18.73
2018-10-16T09:13:40.955Z,18.97
2018-10-16T09:15:43.964Z,19.10
2018-10-16T09:17:46.952Z,19.21
2018-10-16T09:19:49.918Z,19.23
2018-10-16T09:21:52.903Z,19.16
2018-10-16T09:23:55.878Z,19.44
2018-10-16T09:25:58.991Z,19.67
2018-10-16T09:28:02.007Z,19.81
2018-10-16T09:30:07.512Z,19.91
2018-10-16T09:32:10.497Z,20.08
2018-10-16T09:34:13.493Z,20.06
2018-10-16T09:36:16.511Z,20.33
2018-10-16T09:38:19.588Z,20.59
2018-10-16T09:40:22.653Z,20.28
2018-10-16T09:42:25.789Z,20.10
2018-10-16T09:44:28.869Z,20.26
2018-10-16T09:46:31.897Z,19.98
2018-10-16T09:48:36.172Z,20.29
2018-10-16T09:50:39.295Z,20.22
2018-10-16T09:52:42.349Z,20.42
2018-10-16T09:54:45.416Z,20.48
2018-10-16T09:56:48.487Z,20.49
2018-10-16T09:58:51.571Z,20.83
2018-10-16T10:01:00.425Z,20.93
2018-10-16T10:03:04.567Z,21.09
2018-10-16T10:05:07.706Z,21.02
2018-10-16T10:07:10.833Z,20.98
2018-10-16T10:09:13.909Z,21.22
2018-10-16T10:11:16.956Z,21.07
2018-10-16T10:13:20.009Z,21.36
2018-10-16T10:15:23.013Z,21.37
2018-10-16T10:17:26.033Z,21.36
2018-10-16T10:19:29.069Z,21.26
2018-10-16T10:21:32.080Z,21.55
2018-10-16T10:23:36.365Z,21.88
2018-10-16T10:25:39.348Z,21.70
2018-10-16T10:27:42.353Z,21.70
2018-10-16T10:29:45.422Z,21.73
2018-10-16T10:31:48.431Z,21.93
2018-10-16T10:33:51.501Z,21.97
2018-10-16T10:35:54.571Z,22.08
2018-10-16T10:37:57.619Z,22.31
2018-10-16T10:40:00.636Z,22.37
2018-10-16T10:42:04.269Z,22.34
2018-10-16T10:44:07.919Z,22.49
2018-10-16T10:46:10.963Z,22.38
2018-10-16T10:48:14.005Z,22.54
2018-10-16T10:50:17.067Z,22.57
2018-10-16T10:52:20.106Z,22.53
2018-10-16T10:54:23.153Z,22.73
2018-10-16T10:56:26.180Z,22.86
2018-10-16T10:58:29.165Z,23.00
2018-10-16T11:00:32.223Z,23.17
2018-10-16T11:02:36.810Z,22.93
2018-10-16T11:04:39.868Z,23.12
2018-10-16T11:06:42.889Z,23.17
2018-10-16T11:08:45.945Z,23.11
2018-10-16T11:10:48.961Z,23.20
2018-10-16T11:12:52.062Z,23.43
2018-10-16T11:14:55.420Z,23.64
2018-10-16T11:16:58.453Z,23.63
2018-10-16T11:19:01.556Z,23.51
2018-10-16T11:21:06.355Z,23.62
2018-10-16T11:23:09.396Z,23.82
2018-10-16T11:25:12.527Z,24.09
2018-10-16T11:27:15.613Z,23.81
2018-10-16T11:29:18.640Z,24.23
2018-10-16T11:31:21.710Z,24.43
2018-10-16T11:33:24.741Z,24.12
2018-10-16T11:35:27.805Z,24.04
2018-10-16T11:37:30.902Z,23.73
2018-10-16T11:39:35.023Z,23.99
2018-10-16T11:41:38.174Z,23.73
2018-10-16T11:43:41.295Z,23.63
2018-10-16T11:45:44.429Z,23.64
2018-10-16T11:47:47.511Z,23.58
2018-10-16T11:49:50.814Z,23.55
2018-10-16T11:51:53.853Z,23.73
2018-10-16T11:53:56.885Z,23.88
2018-10-16T11:56:00.106Z,24.17
2018-10-16T11:58:04.789Z,24.24
2018-10-16T12:00:13.770Z,24.36
2018-10-16T12:02:16.933Z,24.36
2018-10-16T12:04:19.929Z,24.44
2018-10-16T12:06:23.019Z,24.66
2018-10-16T12:08:26.148Z,24.54
2018-10-16T12:10:29.248Z,24.04
2018-10-16T12:12:32.291Z,23.95
2018-10-16T12:14:35.693Z,23.84
2018-10-16T12:16:45.257Z,23.95
2018-10-16T12:18:52.897Z,24.13
2018-10-16T12:21:04.835Z,23.65
2018-10-16T12:23:07.920Z,23.79
2018-10-16T12:25:11.063Z,24.03
2018-10-16T12:27:14.168Z,23.88
2018-10-16T12:29:17.225Z,23.96
2018-10-16T12:31:20.276Z,24.07
2018-10-16T12:33:23.715Z,23.78
2018-10-16T12:35:26.741Z,24.08
2018-10-16T12:37:29.787Z,24.48
2018-10-16T12:39:34.077Z,24.73
2018-10-16T12:41:37.121Z,24.69
2018-10-16T12:43:40.413Z,24.94
2018-10-16T12:45:43.621Z,25.36
2018-10-16T12:47:46.654Z,25.63
2018-10-16T12:49:49.679Z,25.23
2018-10-16T12:51:52.749Z,25.16
2018-10-16T12:53:55.817Z,24.57
2018-10-16T12:55:58.969Z,24.67
2018-10-16T12:58:02.045Z,24.30
2018-10-16T13:00:06.567Z,24.27
2018-10-16T13:02:09.693Z,24.35
2018-10-16T13:04:12.678Z,24.17
2018-10-16T13:06:15.709Z,24.10
2018-10-16T13:08:18.759Z,23.82
2018-10-16T13:10:21.841Z,24.18
2018-10-16T13:12:24.950Z,23.95
2018-10-16T13:14:28.278Z,24.17
2018-10-16T13:16:31.772Z,24.06
2018-10-16T13:18:36.110Z,23.80
2018-10-16T13:20:39.157Z,24.21
2018-10-16T13:22:43.689Z,24.06
2018-10-16T13:24:46.713Z,24.01
2018-10-16T13:26:49.824Z,24.38
2018-10-16T13:28:53.257Z,24.33
2018-10-16T13:30:56.286Z,24.27
2018-10-16T13:32:59.381Z,24.50
2018-10-16T13:35:02.515Z,24.87
2018-10-16T13:37:06.073Z,25.01
2018-10-16T13:39:09.101Z,24.98
2018-10-16T13:41:12.165Z,25.39
2018-10-16T13:43:15.250Z,25.39
2018-10-16T13:45:18.329Z,25.60
2018-10-16T13:47:21.372Z,25.68
2018-10-16T13:49:24.524Z,25.82
2018-10-16T13:51:27.613Z,25.77
2018-10-16T13:53:30.652Z,25.81
2018-10-16T13:55:35.353Z,25.81
2018-10-16T13:57:38.497Z,25.52
2018-10-16T13:59:41.528Z,25.41
2018-10-16T14:01:44.557Z,25.65
2018-10-16T14:03:47.621Z,25.71
2018-10-16T14:05:50.840Z,25.63
2018-10-16T14:07:53.904Z,25.60
2018-10-16T14:09:56.960Z,25.69
2018-10-16T14:12:00.073Z,25.79
2018-10-16T14:14:05.234Z,26.20
2018-10-16T14:16:08.312Z,26.13
2018-10-16T14:18:11.376Z,26.04
2018-10-16T14:20:14.481Z,26.25
2018-10-16T14:22:17.541Z,25.81
2018-10-16T14:24:20.594Z,25.47
2018-10-16T14:26:23.655Z,25.68
2018-10-16T14:28:26.750Z,25.83
2018-10-16T14:30:29.834Z,25.32
2018-10-16T14:32:33.980Z,25.34
2018-10-16T14:34:37.120Z,25.76
2018-10-16T14:36:40.115Z,25.86
2018-10-16T14:38:43.244Z,25.97
2018-10-16T14:40:46.320Z,25.34
2018-10-16T14:42:49.347Z,25.11
2018-10-16T14:44:52.408Z,25.24
2018-10-16T14:46:55.533Z,25.57
2018-10-16T14:48:58.578Z,25.36
2018-10-16T14:51:01.605Z,25.42
2018-10-16T14:53:06.645Z,25.08
2018-10-16T14:55:09.738Z,24.99
2018-10-16T14:57:12.813Z,24.68
2018-10-16T14:59:15.830Z,24.54
2018-10-16T15:01:18.897Z,24.38
2018-10-16T15:03:21.971Z,23.99
2018-10-16T15:05:25.004Z,24.24
2018-10-16T15:07:28.058Z,23.92
2018-10-16T15:09:31.134Z,23.59
2018-10-16T15:11:35.521Z,23.54
2018-10-16T15:13:38.613Z,23.63
2018-10-16T15:15:41.646Z,23.12
2018-10-16T15:17:44.712Z,22.97
2018-10-16T15:19:48.074Z,22.85
2018-10-16T15:21:51.128Z,22.63
2018-10-16T15:23:54.194Z,22.76
2018-10-16T15:25:57.344Z,22.68
2018-10-16T15:28:00.376Z,22.40
2018-10-16T15:30:05.100Z,22.25
2018-10-16T15:32:08.291Z,22.09
2018-10-16T15:34:11.347Z,21.84
2018-10-16T15:36:14.364Z,21.94
2018-10-16T15:38:17.459Z,21.79
2018-10-16T15:40:20.503Z,21.32
2018-10-16T15:42:23.633Z,21.27
2018-10-16T15:44:26.686Z,21.37
2018-10-16T15:46:29.733Z,21.18
2018-10-16T15:48:34.016Z,21.11
2018-10-16T15:50:37.047Z,21.08
2018-10-16T15:52:40.205Z,21.11
2018-10-16T15:54:43.249Z,20.75
2018-10-16T15:56:46.272Z,20.67
2018-10-16T15:58:49.705Z,20.61
2018-10-16T16:00:52.671Z,20.58
2018-10-16T16:02:55.748Z,20.38
2018-10-16T16:04:58.813Z,20.66
2018-10-16T16:07:01.857Z,20.46
2018-10-16T16:09:06.524Z,20.58
2018-10-16T16:11:09.575Z,20.51
2018-10-16T16:13:12.588Z,20.42
2018-10-16T16:15:15.561Z,19.94
2018-10-16T16:17:18.602Z,19.79
2018-10-16T16:19:21.611Z,19.78
2018-10-16T16:21:24.617Z,19.66
2018-10-16T16:23:27.668Z,19.54
2018-10-16T16:25:30.664Z,19.44
2018-10-16T16:27:35.156Z,19.51
2018-10-16T16:29:38.231Z,19.25
2018-10-16T16:31:41.275Z,19.09
2018-10-16T16:33:44.268Z,19.05
2018-10-16T16:35:47.248Z,19.04
2018-10-16T16:37:50.727Z,18.93
2018-10-16T16:39:53.681Z,18.91
2018-10-16T16:41:56.691Z,19.19
2018-10-16T16:43:59.790Z,19.35
2018-10-16T16:46:04.642Z,19.28
2018-10-16T16:48:07.717Z,19.02
2018-10-16T16:50:11.621Z,18.78
2018-10-16T16:52:14.555Z,18.52
2018-10-16T16:54:17.616Z,18.37
2018-10-16T16:56:20.605Z,18.33
2018-10-16T16:58:23.652Z,18.27
2018-10-16T17:00:26.629Z,18.24
2018-10-16T17:02:29.624Z,18.10
2018-10-16T17:04:34.117Z,18.04
2018-10-16T17:06:37.082Z,17.96
2018-10-16T17:08:40.120Z,17.89
2018-10-16T17:10:43.131Z,17.85
2018-10-16T17:12:46.152Z,17.92
2018-10-16T17:14:49.221Z,18.24
2018-10-16T17:16:52.288Z,18.24
2018-10-16T17:18:55.401Z,17.89
2018-10-16T17:20:58.419Z,17.75
2018-10-16T17:23:01.442Z,17.87
2018-10-16T17:25:05.276Z,18.05
2018-10-16T17:27:08.376Z,17.97
2018-10-16T17:29:11.819Z,17.76
2018-10-16T17:31:14.793Z,17.66
2018-10-16T17:33:17.837Z,17.67
2018-10-16T17:35:20.837Z,17.61
2018-10-16T17:37:23.881Z,17.76
2018-10-16T17:39:26.923Z,17.66
2018-10-16T17:41:30.085Z,17.54
2018-10-16T17:43:34.530Z,17.46
2018-10-16T17:45:37.570Z,17.36
2018-10-16T17:47:40.880Z,17.37
2018-10-16T17:49:43.841Z,17.32
2018-10-16T17:51:46.841Z,17.34
2018-10-16T17:53:49.900Z,17.49
2018-10-16T17:55:52.940Z,17.45
2018-10-16T17:57:56.008Z,17.34
2018-10-16T17:59:58.995Z,17.45
2018-10-16T18:02:02.037Z,17.28
2018-10-16T18:04:07.069Z,17.22
2018-10-16T18:06:10.026Z,17.16
2018-10-16T18:08:13.341Z,17.21
2018-10-16T18:10:16.344Z,17.14
2018-10-16T18:12:19.328Z,17.13
2018-10-16T18:14:22.333Z,17.08
2018-10-16T18:16:25.340Z,17.03
2018-10-16T18:18:28.315Z,17.01
2018-10-16T18:20:31.371Z,16.94
2018-10-16T18:22:35.613Z,16.91
2018-10-16T18:24:38.629Z,16.82
2018-10-16T18:26:41.660Z,16.64
2018-10-16T18:28:44.646Z,16.68
2018-10-16T18:30:47.645Z,16.64
2018-10-16T18:32:50.706Z,16.52
2018-10-16T18:34:53.694Z,16.53
2018-10-16T18:36:56.691Z,16.42
2018-10-16T18:38:59.775Z,16.45
2018-10-16T18:41:04.566Z,16.58
2018-10-16T18:43:07.549Z,16.94
2018-10-16T18:45:12.190Z,16.93
2018-10-16T18:47:15.211Z,16.70
2018-10-16T18:49:18.273Z,16.63
2018-10-16T18:51:21.632Z,16.38
2018-10-16T18:53:24.785Z,16.26
2018-10-16T18:55:27.821Z,16.19
2018-10-16T18:57:30.911Z,16.08
2018-10-16T18:59:35.062Z,15.89
2018-10-16T19:01:38.110Z,15.83
2018-10-16T19:03:41.160Z,15.83
2018-10-16T19:05:44.322Z,15.70
2018-10-16T19:07:47.431Z,15.67
2018-10-16T19:09:50.461Z,15.55
2018-10-16T19:11:53.582Z,15.45
2018-10-16T19:13:56.782Z,15.36
2018-10-16T19:16:00.043Z,15.24
2018-10-16T19:18:04.496Z,15.25
2018-10-16T19:20:09.519Z,15.25
2018-10-16T19:22:12.551Z,15.34
2018-10-16T19:24:15.613Z,15.47
2018-10-16T19:26:18.702Z,15.49
2018-10-16T19:28:21.804Z,15.39
2018-10-16T19:30:24.857Z,15.38
2018-10-16T19:32:27.881Z,15.10
2018-10-16T19:34:31.277Z,15.04
2018-10-16T19:36:35.666Z,14.83
2018-10-16T19:38:38.668Z,14.75
2018-10-16T19:40:41.972Z,14.67
2018-10-16T19:42:45.008Z,14.54
2018-10-16T19:44:48.026Z,14.54
2018-10-16T19:46:51.380Z,14.53
2018-10-16T19:48:54.500Z,14.44
2018-10-16T19:50:57.602Z,14.41
2018-10-16T19:53:00.953Z,14.32
2018-10-16T19:55:06.265Z,14.29
2018-10-16T19:57:09.366Z,14.29
2018-10-16T19:59:12.452Z,14.59
2018-10-16T20:01:15.488Z,14.43
2018-10-16T20:03:18.614Z,14.31
2018-10-16T20:05:21.681Z,14.30
2018-10-16T20:07:24.740Z,14.16
2018-10-16T20:09:27.789Z,14.00
2018-10-16T20:11:30.984Z,13.93
2018-10-16T20:13:35.108Z,13.79
2018-10-16T20:15:38.192Z,13.76
2018-10-16T20:17:41.166Z,13.76
2018-10-16T20:19:44.230Z,13.64
2018-10-16T20:21:47.388Z,13.52
2018-10-16T20:23:50.451Z,13.39
2018-10-16T20:25:53.424Z,13.34
2018-10-16T20:27:56.460Z,13.28
2018-10-16T20:29:59.489Z,13.12
2018-10-16T20:32:03.991Z,13.28
2018-10-16T20:34:06.969Z,13.26
2018-10-16T20:36:10.016Z,13.25
2018-10-16T20:38:13.042Z,13.24
2018-10-16T20:40:16.041Z,13.16
2018-10-16T20:42:19.126Z,13.16
2018-10-16T20:44:22.126Z,13.07
2018-10-16T20:46:25.112Z,13.01
2018-10-16T20:48:28.170Z,12.95
2018-10-16T20:50:31.153Z,12.89
2018-10-16T20:52:35.369Z,12.89
2018-10-16T20:54:38.406Z,12.96
2018-10-16T20:56:41.461Z,12.94
2018-10-16T20:58:44.421Z,12.87
2018-10-16T21:00:47.812Z,12.80
2018-10-16T21:02:50.996Z,12.73
2018-10-16T21:04:54.196Z,12.81
2018-10-16T21:06:57.161Z,12.83
2018-10-16T21:09:00.376Z,12.76
2018-10-16T21:11:04.713Z,12.70
2018-10-16T21:13:07.773Z,12.53
2018-10-16T21:15:10.844Z,12.38
2018-10-16T21:17:13.832Z,12.34
2018-10-16T21:19:16.825Z,12.44
2018-10-16T21:21:20.103Z,12.42
2018-10-16T21:23:23.096Z,12.42
2018-10-16T21:25:26.076Z,12.21
2018-10-16T21:27:29.123Z,12.22
2018-10-16T21:29:32.376Z,12.17
2018-10-16T21:31:36.399Z,11.79
2018-10-16T21:33:39.529Z,12.56
2018-10-16T21:35:42.494Z,12.60
2018-10-16T21:37:45.498Z,12.28
2018-10-16T21:39:48.499Z,12.10
2018-10-16T21:41:51.537Z,12.06
2018-10-16T21:43:54.972Z,12.23
2018-10-16T21:45:58.040Z,12.30
2018-10-16T21:48:01.014Z,12.16
2018-10-16T21:50:05.930Z,12.08
2018-10-16T21:52:08.948Z,12.08
2018-10-16T21:54:11.960Z,12.04
2018-10-16T21:56:14.983Z,11.96
2018-10-16T21:58:17.987Z,11.94
2018-10-16T22:00:26.710Z,11.80
2018-10-16T22:02:35.371Z,11.71
2018-10-16T22:04:39.780Z,11.67
2018-10-16T22:06:43.072Z,11.58
2018-10-16T22:08:46.068Z,11.60
2018-10-16T22:10:49.123Z,11.56
2018-10-16T22:12:52.349Z,11.58
2018-10-16T22:14:55.376Z,11.47
2018-10-16T22:16:58.466Z,11.55
2018-10-16T22:19:01.513Z,11.57
2018-10-16T22:21:06.100Z,11.65
2018-10-16T22:23:09.458Z,11.55
2018-10-16T22:25:12.906Z,11.66
2018-10-16T22:27:15.872Z,11.41
2018-10-16T22:29:18.921Z,11.32
2018-10-16T22:31:21.840Z,11.31
2018-10-16T22:33:24.824Z,11.50
2018-10-16T22:35:27.818Z,11.65
2018-10-16T22:37:30.842Z,11.64
2018-10-16T22:39:35.092Z,11.41
2018-10-16T22:41:38.410Z,11.30
2018-10-16T22:43:41.432Z,11.13
2018-10-16T22:45:44.397Z,11.05
2018-10-16T22:47:47.380Z,11.12
2018-10-16T22:49:50.746Z,11.42
2018-10-16T22:51:53.739Z,11.31
2018-10-16T22:53:56.688Z,11.02
2018-10-16T22:55:59.688Z,10.95
2018-10-16T22:58:05.051Z,10.83
2018-10-16T23:00:14.167Z,10.85
2018-10-16T23:02:17.191Z,10.78
2018-10-16T23:04:20.183Z,10.62
2018-10-16T23:06:23.137Z,10.62
2018-10-16T23:08:26.459Z,10.61
2018-10-16T23:10:29.443Z,10.59
2018-10-16T23:12:32.416Z,10.53
2018-10-16T23:14:36.827Z,10.41
2018-10-16T23:16:39.838Z,10.30
2018-10-16T23:18:43.071Z,10.30
2018-10-16T23:20:46.103Z,10.31
2018-10-16T23:22:49.108Z,10.32
2018-10-16T23:24:52.254Z,10.26
2018-10-16T23:26:55.295Z,10.26
2018-10-16T23:28:58.378Z,10.20
2018-10-16T23:31:01.670Z,10.24
2018-10-16T23:33:06.305Z,10.29
2018-10-16T23:35:09.396Z,10.32
2018-10-16T23:37:12.459Z,10.38
2018-10-16T23:39:15.639Z,10.44
2018-10-16T23:41:18.687Z,10.54
2018-10-16T23:43:21.937Z,10.51
2018-10-16T23:45:24.907Z,10.27
2018-10-16T23:47:27.916Z,10.21
2018-10-16T23:49:30.951Z,10.26
2018-10-16T23:51:35.410Z,10.34
2018-10-16T23:53:38.433Z,10.18
2018-10-16T23:55:41.800Z,10.09
2018-10-16T23:57:44.752Z,10.00
2018-10-16T23:59:47.753Z,9.92
